createdAt,value
2023-03-12T00:01:20.304Z,7.88
2023-03-12T00:03:49.714Z,6.68
2023-03-12T00:06:20.600Z,6.35
2023-03-12T00:08:50.837Z,6.38
2023-03-12T00:11:21.065Z,6.75
2023-03-12T00:13:51.322Z,6.80
2023-03-12T00:16:22.281Z,6.25
2023-03-12T00:18:52.067Z,5.93
2023-03-12T00:21:23.601Z,5.55
2023-03-12T00:23:53.991Z,6.20
2023-03-12T00:26:23.642Z,6.00
2023-03-12T00:28:53.783Z,7.07
2023-03-12T00:31:27.176Z,7.43
2023-03-12T00:33:56.956Z,6.40
2023-03-12T00:36:28.478Z,5.75
2023-03-12T00:38:58.592Z,5.70
2023-03-12T00:41:28.269Z,6.53
2023-03-12T00:43:57.699Z,6.28
2023-03-12T00:46:27.009Z,6.95
2023-03-12T00:48:56.151Z,6.80
2023-03-12T00:51:26.803Z,6.30
2023-03-12T00:53:56.726Z,6.57
2023-03-12T00:56:27.013Z,5.90
2023-03-12T00:58:56.075Z,6.45
2023-03-12T01:01:25.591Z,6.00
2023-03-12T01:03:54.886Z,5.88
2023-03-12T01:06:23.923Z,5.75
2023-03-12T01:08:55.428Z,6.72
2023-03-12T01:11:24.810Z,6.38
2023-03-12T01:13:54.529Z,7.38
2023-03-12T01:16:28.410Z,6.15
2023-03-12T01:18:57.589Z,5.80
2023-03-12T01:21:27.217Z,6.68
2023-03-12T01:23:57.988Z,6.57
2023-03-12T01:26:27.474Z,5.85
2023-03-12T01:28:56.925Z,5.50
2023-03-12T01:31:26.350Z,4.97
2023-03-12T01:33:55.761Z,5.35
2023-03-12T01:36:25.699Z,4.65
2023-03-12T01:38:55.826Z,4.35
2023-03-12T01:41:27.277Z,4.55
2023-03-12T01:43:56.627Z,5.45
2023-03-12T01:46:30.602Z,5.60
2023-03-12T01:49:02.655Z,6.68
2023-03-12T01:51:35.396Z,5.30
2023-03-12T01:54:07.326Z,5.53
2023-03-12T01:56:39.528Z,4.32
2023-03-12T01:59:12.525Z,6.03
2023-03-12T02:01:42.323Z,5.45
2023-03-12T02:04:12.713Z,4.82
2023-03-12T02:06:46.018Z,4.30
2023-03-12T02:09:15.949Z,4.70
2023-03-12T02:11:46.270Z,4.55
2023-03-12T02:14:15.426Z,4.55
2023-03-12T02:16:44.925Z,4.97
2023-03-12T02:19:18.243Z,4.32
2023-03-12T02:21:47.674Z,4.30
2023-03-12T02:24:19.445Z,3.83
2023-03-12T02:26:50.414Z,4.28
2023-03-12T02:29:19.817Z,4.60
2023-03-12T02:31:52.340Z,3.30
2023-03-12T02:34:22.256Z,4.35
2023-03-12T02:36:51.359Z,5.28
2023-03-12T02:39:20.869Z,3.90
2023-03-12T02:41:53.558Z,4.95
2023-03-12T02:44:23.845Z,4.40
2023-03-12T02:46:55.149Z,3.55
2023-03-12T02:49:26.715Z,3.78
2023-03-12T02:51:56.364Z,3.20
2023-03-12T02:54:25.977Z,3.35
2023-03-12T02:56:56.539Z,3.55
2023-03-12T02:59:28.061Z,2.67
2023-03-12T03:02:00.375Z,3.85
2023-03-12T03:04:30.756Z,3.08
2023-03-12T03:07:00.030Z,3.65
2023-03-12T03:09:29.040Z,5.70
2023-03-12T03:11:59.603Z,3.22
2023-03-12T03:14:30.720Z,3.63
2023-03-12T03:16:59.652Z,4.28
2023-03-12T03:19:29.365Z,3.42
2023-03-12T03:21:58.835Z,5.18
2023-03-12T03:24:27.828Z,4.05
2023-03-12T03:26:56.876Z,4.70
2023-03-12T03:29:27.186Z,4.30
2023-03-12T03:31:56.205Z,3.15
2023-03-12T03:34:25.272Z,4.03
2023-03-12T03:36:54.750Z,3.55
2023-03-12T03:39:25.183Z,3.83
2023-03-12T03:41:54.794Z,3.80
2023-03-12T03:44:28.050Z,3.47
2023-03-12T03:46:57.404Z,4.38
2023-03-12T03:49:27.034Z,2.88
2023-03-12T03:51:57.668Z,4.90
2023-03-12T03:54:33.976Z,4.30
2023-03-12T03:57:03.744Z,4.80
2023-03-12T03:59:34.581Z,3.15
2023-03-12T04:02:03.805Z,4.05
2023-03-12T04:04:36.009Z,3.25
2023-03-12T04:07:05.277Z,3.15
2023-03-12T04:09:34.536Z,4.07
2023-03-12T04:12:04.161Z,4.30
2023-03-12T04:14:35.531Z,2.92
2023-03-12T04:17:04.711Z,5.32
2023-03-12T04:19:33.862Z,4.70
2023-03-12T04:22:05.063Z,3.83
2023-03-12T04:24:34.205Z,3.63
2023-03-12T04:27:03.164Z,5.03
2023-03-12T04:29:32.468Z,3.50
2023-03-12T04:32:03.632Z,4.50
2023-03-12T04:34:33.282Z,5.28
2023-03-12T04:37:04.093Z,7.03
2023-03-12T04:39:33.802Z,6.32
2023-03-12T04:42:02.907Z,5.07
2023-03-12T04:44:32.817Z,4.07
2023-03-12T04:47:03.559Z,5.30
2023-03-12T04:49:32.957Z,5.18
2023-03-12T04:52:02.119Z,6.55
2023-03-12T04:54:32.220Z,5.45
2023-03-12T04:57:02.363Z,5.03
2023-03-12T04:59:31.687Z,7.43
2023-03-12T05:02:00.815Z,4.65
2023-03-12T05:04:33.866Z,7.00
2023-03-12T05:07:03.136Z,5.10
2023-03-12T05:09:32.618Z,4.97
2023-03-12T05:12:01.713Z,5.90
2023-03-12T05:14:30.925Z,5.03
2023-03-12T05:17:00.117Z,6.72
2023-03-12T05:19:29.034Z,4.70
2023-03-12T05:21:59.363Z,6.00
2023-03-12T05:24:29.069Z,4.55
2023-03-12T05:26:58.052Z,6.45
2023-03-12T05:29:27.088Z,6.40
2023-03-12T05:31:56.637Z,4.40
2023-03-12T05:34:26.162Z,4.93
2023-03-12T05:36:55.832Z,5.32
2023-03-12T05:39:29.391Z,5.80
2023-03-12T05:42:02.538Z,6.55
2023-03-12T05:44:31.967Z,5.03
2023-03-12T05:47:00.996Z,6.05
2023-03-12T05:49:30.370Z,5.32
2023-03-12T05:51:59.584Z,4.65
2023-03-12T05:54:30.370Z,6.78
2023-03-12T05:56:59.298Z,5.63
2023-03-12T05:59:30.285Z,6.68
2023-03-12T06:02:00.405Z,4.90
2023-03-12T06:04:30.045Z,4.68
2023-03-12T06:06:59.488Z,5.53
2023-03-12T06:09:38.154Z,5.88
2023-03-12T06:12:08.025Z,6.05
2023-03-12T06:14:38.190Z,4.90
2023-03-12T06:17:09.376Z,4.82
2023-03-12T06:19:39.137Z,5.03
2023-03-12T06:22:08.789Z,5.70
2023-03-12T06:24:42.549Z,4.18
2023-03-12T06:27:11.666Z,4.93
2023-03-12T06:29:40.864Z,5.88
2023-03-12T06:32:10.233Z,4.53
2023-03-12T06:34:39.669Z,6.43
2023-03-12T06:37:08.702Z,5.85
2023-03-12T06:39:39.104Z,5.03
2023-03-12T06:42:08.291Z,5.95
2023-03-12T06:44:37.433Z,6.20
2023-03-12T06:47:06.845Z,4.18
2023-03-12T06:49:36.786Z,5.05
2023-03-12T06:52:06.265Z,6.80
2023-03-12T06:54:35.537Z,6.05
2023-03-12T06:57:06.104Z,5.05
2023-03-12T06:59:37.781Z,4.13
2023-03-12T07:02:08.047Z,4.30
2023-03-12T07:04:37.073Z,5.93
2023-03-12T07:07:08.534Z,3.72
2023-03-12T07:09:38.069Z,5.43
2023-03-12T07:12:08.956Z,5.82
2023-03-12T07:14:38.652Z,5.88
2023-03-12T07:17:07.695Z,5.57
2023-03-12T07:19:37.032Z,5.28
2023-03-12T07:22:06.097Z,5.78
2023-03-12T07:24:35.494Z,3.67
2023-03-12T07:27:05.389Z,3.63
2023-03-12T07:29:36.104Z,4.05
2023-03-12T07:32:05.088Z,5.07
2023-03-12T07:34:34.240Z,4.32
2023-03-12T07:37:03.392Z,4.03
2023-03-12T07:39:32.394Z,4.40
2023-03-12T07:42:01.900Z,4.03
2023-03-12T07:44:35.920Z,4.33
2023-03-12T07:47:22.201Z,7.07
2023-03-12T07:49:51.487Z,4.30
2023-03-12T07:52:20.532Z,3.88
2023-03-12T07:54:49.491Z,4.47
2023-03-12T07:57:18.639Z,3.88
2023-03-12T07:59:48.232Z,4.50
2023-03-12T08:02:19.181Z,3.78
2023-03-12T08:04:49.161Z,3.83
2023-03-12T08:07:18.309Z,4.75
2023-03-12T08:09:49.488Z,5.40
2023-03-12T08:12:18.930Z,4.78
2023-03-12T08:14:48.206Z,3.47
2023-03-12T08:17:18.679Z,3.13
2023-03-12T08:19:48.233Z,5.07
2023-03-12T08:22:17.610Z,4.35
2023-03-12T08:24:46.621Z,4.35
2023-03-12T08:27:15.922Z,3.58
2023-03-12T08:29:45.050Z,5.05
2023-03-12T08:32:14.906Z,3.45
2023-03-12T08:34:45.600Z,3.50
2023-03-12T08:37:14.774Z,4.13
2023-03-12T08:39:43.973Z,4.20
2023-03-12T08:42:13.141Z,4.30
2023-03-12T08:44:42.341Z,4.63
2023-03-12T08:47:11.440Z,5.65
2023-03-12T08:49:40.769Z,3.53
2023-03-12T08:52:11.404Z,6.15
2023-03-12T08:54:40.573Z,5.47
2023-03-12T08:57:10.713Z,3.55
2023-03-12T08:59:40.538Z,3.83
2023-03-12T09:02:12.886Z,5.60
2023-03-12T09:07:14.120Z,2.97
2023-03-12T09:09:43.886Z,3.72
2023-03-12T09:12:14.249Z,3.53
2023-03-12T09:15:02.466Z,4.70
2023-03-12T09:17:32.945Z,5.95
2023-03-12T09:20:02.023Z,4.63
2023-03-12T09:22:32.569Z,2.90
2023-03-12T09:25:01.649Z,5.05
2023-03-12T09:27:30.674Z,2.85
2023-03-12T09:30:01.470Z,3.55
2023-03-12T09:32:32.264Z,4.63
2023-03-12T09:35:01.417Z,4.80
2023-03-12T09:37:32.713Z,4.22
2023-03-12T09:40:01.886Z,4.28
2023-03-12T09:42:38.067Z,3.13
2023-03-12T09:45:10.490Z,2.72
2023-03-12T09:47:43.333Z,3.75
2023-03-12T09:50:19.333Z,3.30
2023-03-12T09:52:52.859Z,4.30
2023-03-12T09:55:23.329Z,2.90
2023-03-12T09:57:54.038Z,3.05
2023-03-12T10:00:24.993Z,3.15
2023-03-12T10:03:02.737Z,3.08
2023-03-12T10:05:37.216Z,4.05
2023-03-12T10:08:23.943Z,3.60
2023-03-12T10:10:57.398Z,3.03
2023-03-12T10:13:39.426Z,3.58
2023-03-12T10:16:13.926Z,3.75
2023-03-12T10:18:53.151Z,5.00
2023-03-12T10:21:24.275Z,3.22
2023-03-12T10:24:03.212Z,3.13
2023-03-12T10:26:34.847Z,3.20
2023-03-12T10:29:05.759Z,3.88
2023-03-12T10:31:38.668Z,3.03
2023-03-12T10:34:16.578Z,4.00
2023-03-12T10:36:46.473Z,4.53
2023-03-12T10:39:18.006Z,3.17
2023-03-12T10:41:48.188Z,4.00
2023-03-12T10:44:22.797Z,3.60
2023-03-12T10:47:01.600Z,4.40
2023-03-12T10:49:32.028Z,5.18
2023-03-12T10:52:03.100Z,3.90
2023-03-12T10:54:36.774Z,4.68
2023-03-12T10:59:42.237Z,2.95
2023-03-12T11:02:33.952Z,4.63
2023-03-12T11:05:11.974Z,3.10
2023-03-12T11:07:45.585Z,4.50
2023-03-12T11:10:18.588Z,4.30
2023-03-12T11:13:02.078Z,3.58
2023-03-12T11:15:40.943Z,3.10
2023-03-12T11:18:25.447Z,3.78
2023-03-12T11:20:56.589Z,3.63
2023-03-12T11:23:28.037Z,3.83
2023-03-12T11:26:03.094Z,4.18
2023-03-12T11:28:37.902Z,5.38
2023-03-12T11:31:10.444Z,4.85
2023-03-12T11:33:39.682Z,4.47
2023-03-12T11:36:19.319Z,3.92
2023-03-12T11:38:52.443Z,3.92
2023-03-12T11:41:26.899Z,4.40
2023-03-12T11:44:02.142Z,2.85
2023-03-12T11:46:39.745Z,4.50
2023-03-12T11:49:16.593Z,4.75
2023-03-12T11:51:51.181Z,4.10
2023-03-12T11:54:30.855Z,3.10
2023-03-12T11:57:04.356Z,4.18
2023-03-12T11:59:39.186Z,4.05
2023-03-12T12:02:22.794Z,4.75
2023-03-12T12:05:02.908Z,3.75
2023-03-12T12:07:40.881Z,3.70
2023-03-12T12:10:15.341Z,3.25
2023-03-12T12:12:53.324Z,4.60
2023-03-12T12:15:30.426Z,3.78
2023-03-12T12:18:05.084Z,4.18
2023-03-12T12:20:42.852Z,3.72
2023-03-12T12:23:18.873Z,3.75
2023-03-12T12:25:55.787Z,3.95
2023-03-12T12:28:39.493Z,3.42
2023-03-12T12:31:18.732Z,3.75
2023-03-12T12:33:57.421Z,3.92
2023-03-12T12:36:27.727Z,4.63
2023-03-12T12:38:58.656Z,3.33
2023-03-12T12:41:29.652Z,3.70
2023-03-12T12:44:14.010Z,3.58
2023-03-12T12:46:47.652Z,4.05
2023-03-12T12:49:18.951Z,4.25
2023-03-12T12:51:51.546Z,3.90
2023-03-12T12:54:24.145Z,5.63
2023-03-12T12:56:55.330Z,3.97
2023-03-12T12:59:35.552Z,6.00
2023-03-12T13:02:08.030Z,3.17
2023-03-12T13:04:42.360Z,3.63
2023-03-12T13:07:34.349Z,3.33
2023-03-12T13:10:26.862Z,4.00
2023-03-12T13:12:58.871Z,3.60
2023-03-12T13:18:07.060Z,3.70
2023-03-12T13:20:40.242Z,4.43
2023-03-12T13:23:23.437Z,3.70
2023-03-12T13:25:57.849Z,5.03
2023-03-12T13:28:35.294Z,5.45
2023-03-12T13:31:05.380Z,5.05
2023-03-12T13:33:46.283Z,5.57
2023-03-12T13:36:24.394Z,4.00
2023-03-12T13:38:58.361Z,3.85
2023-03-12T13:41:35.048Z,4.47
2023-03-12T13:44:19.027Z,4.78
2023-03-12T13:46:48.054Z,3.45
2023-03-12T13:49:22.221Z,4.07
2023-03-12T13:51:57.101Z,3.13
2023-03-12T13:54:29.403Z,3.63
2023-03-12T13:59:28.125Z,3.53
2023-03-12T14:01:59.418Z,2.08
2023-03-12T14:04:34.029Z,1.63
2023-03-12T14:07:17.618Z,1.40
2023-03-12T14:09:48.949Z,1.77
2023-03-12T14:12:21.607Z,1.23
2023-03-12T14:15:03.809Z,0.93
2023-03-12T14:17:36.899Z,1.45
2023-03-12T14:20:12.812Z,2.30
2023-03-12T14:22:43.627Z,2.58
2023-03-12T14:25:15.605Z,2.45
2023-03-12T14:27:47.264Z,1.70
2023-03-12T14:30:20.737Z,1.85
2023-03-12T14:32:52.028Z,1.80
2023-03-12T14:35:23.911Z,1.93
2023-03-12T14:37:57.762Z,3.35
2023-03-12T14:40:31.772Z,2.42
2023-03-12T14:43:01.685Z,2.28
2023-03-12T14:45:31.104Z,1.95
2023-03-12T14:48:00.426Z,2.80
2023-03-12T14:50:32.328Z,3.35
2023-03-12T14:53:12.611Z,2.17
2023-03-12T14:55:41.727Z,2.45
2023-03-12T14:58:17.267Z,2.47
2023-03-12T15:00:46.932Z,2.83
2023-03-12T15:03:17.751Z,2.05
2023-03-12T15:05:49.367Z,1.92
2023-03-12T15:08:19.158Z,2.63
2023-03-12T15:10:50.019Z,3.38
2023-03-12T15:13:21.039Z,1.80
2023-03-12T15:15:51.263Z,3.47
2023-03-12T15:18:21.081Z,1.63
2023-03-12T15:20:53.395Z,2.33
2023-03-12T15:23:23.823Z,1.80
2023-03-12T15:26:08.259Z,2.67
2023-03-12T15:28:37.797Z,1.25
2023-03-12T15:31:08.890Z,1.20
2023-03-12T15:33:38.117Z,1.40
2023-03-12T15:36:18.145Z,1.58
2023-03-12T15:38:48.356Z,2.17
2023-03-12T15:41:20.375Z,1.83
2023-03-12T15:46:19.288Z,1.83
2023-03-12T15:48:51.212Z,1.00
2023-03-12T15:51:35.863Z,1.30
2023-03-12T15:54:06.689Z,1.48
2023-03-12T15:56:37.442Z,1.50
2023-03-12T15:59:20.977Z,1.45
2023-03-12T16:01:51.407Z,1.08
2023-03-12T16:04:20.836Z,1.80
2023-03-12T16:06:52.786Z,1.50
2023-03-12T16:09:24.550Z,1.15
2023-03-12T16:11:54.522Z,1.20
2023-03-12T16:14:24.783Z,1.20
2023-03-12T16:16:53.923Z,1.60
2023-03-12T16:19:23.673Z,1.25
2023-03-12T16:21:54.082Z,1.70
2023-03-12T16:24:23.263Z,2.83
2023-03-12T16:26:53.363Z,1.55
2023-03-12T16:29:22.990Z,2.38
2023-03-12T16:31:53.414Z,1.63
2023-03-12T16:34:22.759Z,1.20
2023-03-12T16:36:51.848Z,1.65
2023-03-12T16:39:23.796Z,1.58
2023-03-12T16:41:53.782Z,1.35
2023-03-12T16:44:23.187Z,2.85
2023-03-12T16:46:52.266Z,1.73
2023-03-12T16:49:21.605Z,1.52
2023-03-12T16:51:50.530Z,1.23
2023-03-12T16:54:19.450Z,2.28
2023-03-12T16:56:50.980Z,2.13
2023-03-12T16:59:24.903Z,2.10
2023-03-12T17:01:53.988Z,1.60
2023-03-12T17:04:22.933Z,2.17
2023-03-12T17:06:51.951Z,2.13
2023-03-12T17:09:20.940Z,2.53
2023-03-12T17:11:52.294Z,2.25
2023-03-12T17:14:22.815Z,2.50
2023-03-12T17:16:52.810Z,2.10
2023-03-12T17:19:21.710Z,2.00
2023-03-12T17:21:51.330Z,2.08
2023-03-12T17:24:20.365Z,2.15
2023-03-12T17:26:53.287Z,2.22
2023-03-12T17:29:22.238Z,2.80
2023-03-12T17:31:51.311Z,2.15
2023-03-12T17:34:20.513Z,2.00
2023-03-12T17:36:49.528Z,2.15
2023-03-12T17:39:18.765Z,2.35
2023-03-12T17:41:48.113Z,2.67
2023-03-12T17:44:18.632Z,2.65
2023-03-12T17:46:58.868Z,2.30
2023-03-12T17:49:28.498Z,3.70
2023-03-12T17:51:57.776Z,3.28
2023-03-12T17:54:26.972Z,3.35
2023-03-12T17:56:55.944Z,3.38
2023-03-12T17:59:26.515Z,3.17
2023-03-12T18:01:55.425Z,3.38
2023-03-12T18:04:24.773Z,2.92
2023-03-12T18:06:53.943Z,3.65
2023-03-12T18:09:23.365Z,3.97
2023-03-12T18:11:52.509Z,7.78
2023-03-12T18:14:23.718Z,3.60
2023-03-12T18:16:53.996Z,5.93
2023-03-12T18:19:23.616Z,5.10
2023-03-12T18:21:52.870Z,5.13
2023-03-12T18:24:24.706Z,5.35
2023-03-12T18:26:54.085Z,5.40
2023-03-12T18:29:22.991Z,3.47
2023-03-12T18:31:52.148Z,4.60
2023-03-12T18:34:23.491Z,5.97
2023-03-12T18:36:53.137Z,5.03
2023-03-12T18:39:23.706Z,4.20
2023-03-12T18:41:52.969Z,5.22
2023-03-12T18:44:22.087Z,3.95
2023-03-12T18:46:51.935Z,4.60
2023-03-12T18:49:22.432Z,5.65
2023-03-12T18:51:54.550Z,7.20
2023-03-12T18:56:54.482Z,6.00
2023-03-12T18:59:23.591Z,5.90
2023-03-12T19:01:52.670Z,5.45
2023-03-12T19:04:23.279Z,5.07
2023-03-12T19:06:52.442Z,5.72
2023-03-12T19:09:22.073Z,5.95
2023-03-12T19:11:51.261Z,4.80
2023-03-12T19:14:20.212Z,7.50
2023-03-12T19:16:49.229Z,6.50
2023-03-12T19:19:18.208Z,7.57
2023-03-12T19:21:48.737Z,7.18
2023-03-12T19:24:17.634Z,5.65
2023-03-12T19:26:47.154Z,5.07
2023-03-12T19:29:16.543Z,6.57
2023-03-12T19:31:45.550Z,6.30
2023-03-12T19:34:14.646Z,4.55
2023-03-12T19:36:43.753Z,5.65
2023-03-12T19:39:21.050Z,5.13
2023-03-12T19:41:51.118Z,3.17
2023-03-12T19:44:20.184Z,3.70
2023-03-12T19:46:49.325Z,5.03
2023-03-12T19:49:18.755Z,3.88
2023-03-12T19:51:47.718Z,3.30
2023-03-12T19:54:18.077Z,4.35
2023-03-12T19:56:47.032Z,3.42
2023-03-12T19:59:15.987Z,4.55
2023-03-12T20:01:45.049Z,3.40
2023-03-12T20:04:14.058Z,4.65
2023-03-12T20:06:43.160Z,4.75
2023-03-12T20:09:12.343Z,3.42
2023-03-12T20:11:42.692Z,3.33
2023-03-12T20:14:11.808Z,4.00
2023-03-12T20:16:40.935Z,3.40
2023-03-12T20:19:10.114Z,5.65
2023-03-12T20:21:39.016Z,2.90
2023-03-12T20:24:08.393Z,2.87
2023-03-12T20:26:39.440Z,3.03
2023-03-12T20:29:10.070Z,2.73
2023-03-12T20:31:39.911Z,2.05
2023-03-12T20:34:09.148Z,1.73
2023-03-12T20:36:38.312Z,2.05
2023-03-12T20:39:07.403Z,1.95
2023-03-12T20:41:36.390Z,1.70
2023-03-12T20:44:05.582Z,1.30
2023-03-12T20:46:36.126Z,1.90
2023-03-12T20:49:06.139Z,1.20
2023-03-12T20:51:35.185Z,1.17
2023-03-12T20:54:04.492Z,1.15
2023-03-12T20:56:33.637Z,1.10
2023-03-12T20:59:03.073Z,0.93
2023-03-12T21:01:32.320Z,0.93
2023-03-12T21:04:02.696Z,0.77
2023-03-12T21:06:31.630Z,0.47
2023-03-12T21:09:00.669Z,0.95
2023-03-12T21:11:31.381Z,0.85
2023-03-12T21:14:00.802Z,0.75
2023-03-12T21:16:29.818Z,0.50
2023-03-12T21:18:59.550Z,0.43
2023-03-12T21:21:30.529Z,0.68
2023-03-12T21:23:59.437Z,0.68
2023-03-12T21:26:28.485Z,0.40
2023-03-12T21:28:57.502Z,0.60
2023-03-12T21:31:27.290Z,0.47
2023-03-12T21:33:56.650Z,0.43
2023-03-12T21:36:26.089Z,0.50
2023-03-12T21:38:56.576Z,0.50
2023-03-12T21:41:25.704Z,0.63
2023-03-12T21:43:54.888Z,0.45
2023-03-12T21:46:27.582Z,0.60
2023-03-12T21:48:56.778Z,0.50
2023-03-12T21:51:26.062Z,0.50
2023-03-12T21:53:58.258Z,0.50
2023-03-12T21:56:28.260Z,0.40
2023-03-12T21:58:57.916Z,0.40
2023-03-12T22:01:26.930Z,0.30
2023-03-12T22:03:55.936Z,0.68
2023-03-12T22:06:25.143Z,0.60
2023-03-12T22:08:55.328Z,0.90
2023-03-12T22:11:25.934Z,0.77
2023-03-12T22:13:54.848Z,1.00
2023-03-12T22:16:24.060Z,1.05
2023-03-12T22:18:53.060Z,1.13
2023-03-12T22:21:22.764Z,0.90
2023-03-12T22:23:53.817Z,1.13
2023-03-12T22:26:23.563Z,1.10
2023-03-12T22:28:55.069Z,1.20
2023-03-12T22:31:25.244Z,0.80
2023-03-12T22:33:54.667Z,0.90
2023-03-12T22:36:24.003Z,0.88
2023-03-12T22:38:53.526Z,0.82
2023-03-12T22:41:23.794Z,0.90
2023-03-12T22:43:55.049Z,0.75
2023-03-12T22:46:25.154Z,0.75
2023-03-12T22:48:55.048Z,0.60
2023-03-12T22:51:24.220Z,0.93
2023-03-12T22:53:54.606Z,0.40
2023-03-12T22:56:24.226Z,0.40
2023-03-12T22:58:56.562Z,1.05
2023-03-12T23:01:26.010Z,0.52
2023-03-12T23:03:55.461Z,0.57
2023-03-12T23:06:25.834Z,0.43
2023-03-12T23:08:55.750Z,0.40
2023-03-12T23:11:25.773Z,0.63
2023-03-12T23:13:56.253Z,0.50
2023-03-12T23:16:26.037Z,0.80
2023-03-12T23:18:56.399Z,0.55
2023-03-12T23:21:25.863Z,0.80
2023-03-12T23:23:55.399Z,1.63
2023-03-12T23:26:26.049Z,0.75
2023-03-12T23:28:56.807Z,1.10
2023-03-12T23:31:27.525Z,1.27
2023-03-12T23:33:57.329Z,1.10
2023-03-12T23:36:26.706Z,1.13
2023-03-12T23:38:55.786Z,1.77
2023-03-12T23:41:25.345Z,2.03
2023-03-12T23:43:55.608Z,2.42
2023-03-12T23:46:24.474Z,1.95
2023-03-12T23:48:53.552Z,2.75
2023-03-12T23:51:23.632Z,2.42
2023-03-12T23:53:53.660Z,3.25
2023-03-12T23:56:23.545Z,4.80
2023-03-12T23:58:52.918Z,4.55
